createdAt,value
2022-10-13T00:00:49.584Z,10.20
2022-10-13T00:03:17.321Z,10.20
2022-10-13T00:05:47.398Z,10.20
2022-10-13T00:08:16.548Z,10.10
2022-10-13T00:10:47.286Z,10.10
2022-10-13T00:13:15.402Z,10.20
2022-10-13T00:15:44.371Z,10.20
2022-10-13T00:18:11.503Z,10.30
2022-10-13T00:20:43.718Z,10.30
2022-10-13T00:23:10.943Z,10.40
2022-10-13T00:25:42.278Z,10.40
2022-10-13T00:28:09.243Z,10.30
2022-10-13T00:30:39.675Z,10.40
2022-10-13T00:33:06.950Z,10.40
2022-10-13T00:35:34.721Z,10.40
2022-10-13T00:38:01.546Z,10.40
2022-10-13T00:40:31.124Z,10.40
2022-10-13T00:42:57.913Z,10.50
2022-10-13T00:45:27.208Z,10.50
2022-10-13T00:47:58.769Z,10.50
2022-10-13T00:50:35.554Z,10.40
2022-10-13T00:53:03.640Z,10.40
2022-10-13T00:55:34.217Z,10.40
2022-10-13T00:58:05.656Z,10.40
2022-10-13T01:00:34.895Z,10.50
2022-10-13T01:03:02.637Z,10.70
2022-10-13T01:05:30.901Z,10.80
2022-10-13T01:07:59.636Z,10.80
2022-10-13T01:10:57.276Z,10.80
2022-10-13T01:13:48.080Z,10.90
2022-10-13T01:16:28.544Z,10.90
2022-10-13T01:18:58.903Z,10.90
2022-10-13T01:21:51.876Z,11.00
2022-10-13T01:24:34.025Z,11.00
2022-10-13T01:27:22.201Z,10.90
2022-10-13T01:30:02.202Z,11.00
2022-10-13T01:32:50.895Z,11.00
2022-10-13T01:35:41.334Z,10.90
2022-10-13T01:38:17.104Z,10.90
2022-10-13T01:41:01.810Z,10.90
2022-10-13T01:43:36.690Z,10.80
2022-10-13T01:46:16.745Z,10.80
2022-10-13T01:48:46.118Z,10.90
2022-10-13T01:51:17.914Z,10.80
2022-10-13T01:53:47.320Z,10.80
2022-10-13T01:56:14.625Z,10.80
2022-10-13T01:58:41.901Z,10.90
2022-10-13T02:01:33.249Z,11.00
2022-10-13T02:04:24.979Z,11.00
2022-10-13T02:07:03.536Z,11.10
2022-10-13T02:09:55.529Z,11.10
2022-10-13T02:12:30.923Z,11.20
2022-10-13T02:15:01.054Z,11.20
2022-10-13T02:17:28.965Z,11.20
2022-10-13T02:19:56.669Z,11.20
2022-10-13T02:22:29.742Z,11.30
2022-10-13T02:24:59.165Z,11.30
2022-10-13T02:27:27.461Z,11.30
2022-10-13T02:29:56.874Z,11.30
2022-10-13T02:32:29.012Z,11.20
2022-10-13T02:34:56.022Z,11.30
2022-10-13T02:37:25.618Z,11.30
2022-10-13T02:39:52.702Z,11.30
2022-10-13T02:42:20.059Z,11.40
2022-10-13T02:44:47.077Z,11.40
2022-10-13T02:47:13.895Z,11.40
2022-10-13T02:49:40.896Z,11.50
2022-10-13T02:52:07.761Z,11.50
2022-10-13T02:54:41.996Z,11.40
2022-10-13T02:57:08.851Z,11.40
2022-10-13T02:59:35.718Z,11.40
2022-10-13T03:02:02.782Z,11.30
2022-10-13T03:04:30.157Z,11.20
2022-10-13T03:06:59.325Z,11.10
2022-10-13T03:09:26.260Z,11.10
2022-10-13T03:11:53.163Z,11.10
2022-10-13T03:14:20.340Z,11.10
2022-10-13T03:16:47.219Z,11.10
2022-10-13T03:19:15.201Z,11.10
2022-10-13T03:21:42.088Z,11.20
2022-10-13T03:24:09.029Z,11.10
2022-10-13T03:26:36.033Z,11.10
2022-10-13T03:29:03.346Z,11.10
2022-10-13T03:31:30.369Z,11.10
2022-10-13T03:34:03.082Z,11.10
2022-10-13T03:36:30.000Z,11.20
2022-10-13T03:38:56.817Z,11.20
2022-10-13T03:41:23.747Z,11.20
2022-10-13T03:43:50.901Z,11.10
2022-10-13T03:46:19.214Z,11.10
2022-10-13T03:48:47.972Z,11.30
2022-10-13T03:51:19.596Z,11.20
2022-10-13T03:53:50.156Z,11.20
2022-10-13T03:56:23.778Z,11.10
2022-10-13T03:58:54.339Z,11.10
2022-10-13T04:01:23.253Z,11.10
2022-10-13T04:03:52.372Z,11.00
2022-10-13T04:06:19.301Z,11.10
2022-10-13T04:08:46.136Z,11.10
2022-10-13T04:11:15.334Z,11.00
2022-10-13T04:13:44.070Z,10.90
2022-10-13T04:16:19.229Z,10.90
2022-10-13T04:18:50.310Z,11.00
2022-10-13T04:21:17.342Z,10.90
2022-10-13T04:23:44.536Z,10.90
2022-10-13T04:26:17.409Z,10.90
2022-10-13T04:28:45.796Z,10.80
2022-10-13T04:31:13.149Z,10.80
2022-10-13T04:33:40.048Z,10.90
2022-10-13T04:36:09.230Z,11.00
2022-10-13T04:38:36.434Z,11.00
2022-10-13T04:41:04.542Z,11.00
2022-10-13T04:43:32.105Z,10.90
2022-10-13T04:46:07.861Z,10.90
2022-10-13T04:48:34.969Z,10.90
2022-10-13T04:51:10.850Z,11.00
2022-10-13T04:53:38.178Z,11.00
2022-10-13T04:56:13.977Z,11.00
2022-10-13T04:58:43.734Z,11.00
2022-10-13T05:01:21.445Z,11.00
2022-10-13T05:04:01.123Z,11.10
2022-10-13T05:06:31.008Z,11.10
2022-10-13T05:08:58.363Z,11.20
2022-10-13T05:11:26.741Z,11.10
2022-10-13T05:13:54.224Z,11.20
2022-10-13T05:16:21.262Z,11.30
2022-10-13T05:18:52.569Z,11.40
2022-10-13T05:21:26.819Z,11.40
2022-10-13T05:23:55.703Z,11.40
2022-10-13T05:26:28.638Z,11.40
2022-10-13T05:28:59.580Z,11.40
2022-10-13T05:31:33.178Z,11.40
2022-10-13T05:34:01.165Z,11.40
2022-10-13T05:36:30.975Z,11.40
2022-10-13T05:39:00.313Z,11.50
2022-10-13T05:41:29.012Z,11.40
2022-10-13T05:44:02.437Z,11.30
2022-10-13T05:46:29.411Z,11.30
2022-10-13T05:48:56.208Z,11.40
2022-10-13T05:51:30.499Z,11.40
2022-10-13T05:54:06.048Z,11.50
2022-10-13T05:56:43.352Z,11.50
2022-10-13T05:59:14.038Z,11.50
2022-10-13T06:01:42.255Z,11.40
2022-10-13T06:04:14.992Z,11.40
2022-10-13T06:06:45.845Z,11.40
2022-10-13T06:09:12.750Z,11.40
2022-10-13T06:11:40.500Z,11.40
2022-10-13T06:14:07.389Z,11.40
2022-10-13T06:16:36.945Z,11.40
2022-10-13T06:19:05.515Z,11.40
2022-10-13T06:21:35.018Z,11.40
2022-10-13T06:24:02.131Z,11.40
2022-10-13T06:26:31.597Z,11.60
2022-10-13T06:28:59.907Z,11.60
2022-10-13T06:31:28.271Z,11.70
2022-10-13T06:33:55.192Z,11.60
2022-10-13T06:36:22.266Z,11.70
2022-10-13T06:38:49.317Z,11.80
2022-10-13T06:41:18.453Z,11.80
2022-10-13T06:43:45.363Z,11.80
2022-10-13T06:46:12.640Z,11.90
2022-10-13T06:48:39.656Z,12.00
2022-10-13T06:51:08.980Z,12.00
2022-10-13T06:53:36.275Z,12.20
2022-10-13T06:56:05.440Z,12.30
2022-10-13T06:58:32.481Z,12.30
2022-10-13T07:00:59.738Z,12.20
2022-10-13T07:03:26.620Z,12.40
2022-10-13T07:05:53.750Z,12.50
2022-10-13T07:08:20.993Z,12.50
2022-10-13T07:10:48.786Z,12.60
2022-10-13T07:13:15.656Z,12.70
2022-10-13T07:15:42.576Z,12.70
2022-10-13T07:18:09.368Z,12.90
2022-10-13T07:20:36.253Z,13.00
2022-10-13T07:23:03.336Z,13.20
2022-10-13T07:25:30.364Z,13.30
2022-10-13T07:27:59.347Z,13.40
2022-10-13T07:30:26.881Z,13.50
2022-10-13T07:32:54.542Z,13.50
2022-10-13T07:35:24.763Z,13.60
2022-10-13T07:37:55.026Z,13.60
2022-10-13T07:40:21.891Z,13.50
2022-10-13T07:42:48.878Z,13.50
2022-10-13T07:45:15.877Z,13.30
2022-10-13T07:47:42.722Z,13.30
2022-10-13T07:50:10.547Z,13.20
2022-10-13T07:52:37.418Z,13.20
2022-10-13T07:55:04.639Z,13.30
2022-10-13T07:57:31.493Z,13.50
2022-10-13T07:59:58.409Z,13.70
2022-10-13T08:02:26.253Z,13.80
2022-10-13T08:04:53.221Z,13.90
2022-10-13T08:07:20.265Z,13.90
2022-10-13T08:09:47.431Z,14.00
2022-10-13T08:12:14.418Z,14.10
2022-10-13T08:14:42.089Z,14.20
2022-10-13T08:17:09.672Z,14.20
2022-10-13T08:19:36.684Z,14.20
2022-10-13T08:22:06.619Z,14.30
2022-10-13T08:24:37.042Z,14.30
2022-10-13T08:27:04.065Z,14.50
2022-10-13T08:29:32.152Z,14.60
2022-10-13T08:31:59.033Z,14.80
2022-10-13T08:34:25.894Z,14.80
2022-10-13T08:36:56.203Z,14.90
2022-10-13T08:39:24.268Z,15.00
2022-10-13T08:41:51.413Z,15.10
2022-10-13T08:47:41.387Z,15.40
2022-10-13T08:50:24.066Z,15.60
2022-10-13T08:52:57.117Z,15.80
2022-10-13T08:55:45.702Z,15.90
2022-10-13T08:58:26.555Z,16.00
2022-10-13T09:01:16.369Z,16.00
2022-10-13T09:04:03.119Z,16.10
2022-10-13T09:07:06.862Z,16.20
2022-10-13T09:09:33.754Z,16.20
2022-10-13T09:12:00.634Z,16.20
2022-10-13T09:14:37.089Z,16.20
2022-10-13T09:17:22.486Z,16.20
2022-10-13T09:20:04.341Z,16.10
2022-10-13T09:22:34.526Z,16.00
2022-10-13T09:25:07.321Z,16.10
2022-10-13T09:27:59.797Z,16.20
2022-10-13T09:30:35.589Z,16.20
2022-10-13T09:33:11.783Z,16.30
2022-10-13T09:35:38.568Z,16.30
2022-10-13T09:38:06.742Z,16.40
2022-10-13T09:40:33.984Z,16.30
2022-10-13T09:43:04.165Z,16.30
2022-10-13T09:45:31.238Z,16.40
2022-10-13T09:48:07.566Z,16.50
2022-10-13T09:50:36.103Z,16.70
2022-10-13T09:53:26.236Z,16.90
2022-10-13T09:56:21.263Z,17.00
2022-10-13T09:58:51.044Z,17.10
2022-10-13T10:01:33.168Z,17.10
2022-10-13T10:04:13.192Z,16.90
2022-10-13T10:06:41.003Z,16.90
2022-10-13T10:09:24.216Z,17.00
2022-10-13T10:11:53.445Z,16.90
2022-10-13T10:14:33.292Z,16.80
2022-10-13T10:17:22.414Z,16.80
2022-10-13T10:19:56.141Z,16.70
2022-10-13T10:23:04.506Z,16.70
2022-10-13T10:25:39.906Z,16.80
2022-10-13T10:28:37.087Z,16.70
2022-10-13T10:31:29.129Z,16.70
2022-10-13T10:34:36.603Z,16.70
2022-10-13T10:37:25.542Z,16.70
2022-10-13T10:40:19.721Z,16.60
2022-10-13T10:43:04.645Z,16.60
2022-10-13T10:45:37.504Z,16.60
2022-10-13T10:48:16.369Z,16.40
2022-10-13T10:50:43.329Z,16.40
2022-10-13T10:53:21.424Z,16.40
2022-10-13T10:56:15.404Z,16.20
2022-10-13T10:59:04.628Z,16.20
2022-10-13T11:01:46.362Z,16.10
2022-10-13T11:04:35.727Z,15.90
2022-10-13T11:07:04.266Z,16.00
2022-10-13T11:09:43.194Z,15.90
2022-10-13T11:12:19.203Z,15.90
2022-10-13T11:14:46.852Z,15.80
2022-10-13T11:17:19.510Z,15.80
2022-10-13T11:19:49.030Z,15.80
2022-10-13T11:22:18.687Z,15.70
2022-10-13T11:24:51.643Z,15.60
2022-10-13T11:27:25.312Z,15.60
2022-10-13T11:29:55.623Z,15.60
2022-10-13T11:32:25.900Z,15.70
2022-10-13T11:35:01.722Z,15.80
2022-10-13T11:37:55.820Z,15.70
2022-10-13T11:40:40.561Z,15.70
2022-10-13T11:43:10.452Z,15.70
2022-10-13T11:45:45.496Z,15.70
2022-10-13T11:48:34.137Z,15.80
2022-10-13T11:51:23.796Z,15.80
2022-10-13T11:54:19.515Z,16.00
2022-10-13T11:56:51.851Z,16.20
2022-10-13T11:59:32.544Z,16.10
2022-10-13T12:02:12.081Z,16.20
2022-10-13T12:04:46.315Z,16.10
2022-10-13T12:07:15.861Z,16.00
2022-10-13T12:09:53.308Z,16.00
2022-10-13T12:12:23.413Z,16.00
2022-10-13T12:14:55.713Z,15.90
2022-10-13T12:17:26.595Z,15.80
2022-10-13T12:19:59.525Z,15.80
2022-10-13T12:22:29.031Z,15.80
2022-10-13T12:25:01.444Z,15.90
2022-10-13T12:27:32.722Z,15.90
2022-10-13T12:30:01.380Z,15.80
2022-10-13T12:32:34.397Z,15.80
2022-10-13T12:35:21.084Z,15.90
2022-10-13T12:37:49.320Z,15.80
2022-10-13T12:40:17.698Z,15.70
2022-10-13T12:42:45.564Z,15.60
2022-10-13T12:45:21.779Z,15.50
2022-10-13T12:47:53.526Z,15.40
2022-10-13T12:50:29.218Z,15.50
2022-10-13T12:53:18.789Z,15.40
2022-10-13T12:55:49.329Z,15.60
2022-10-13T12:58:22.758Z,15.60
2022-10-13T13:01:06.505Z,15.60
2022-10-13T13:03:36.220Z,15.60
2022-10-13T13:06:15.557Z,15.70
2022-10-13T13:08:43.347Z,15.60
2022-10-13T13:11:32.812Z,15.60
2022-10-13T13:14:43.731Z,15.60
2022-10-13T13:20:21.328Z,15.50
2022-10-13T13:22:48.407Z,15.40
2022-10-13T13:25:15.519Z,15.40
2022-10-13T13:27:42.591Z,15.40
2022-10-13T13:30:14.429Z,15.40
2022-10-13T13:33:24.911Z,15.30
2022-10-13T13:35:54.332Z,15.30
2022-10-13T13:38:21.230Z,15.30
2022-10-13T13:40:48.305Z,15.30
2022-10-13T13:43:15.228Z,15.20
2022-10-13T13:45:42.111Z,15.20
2022-10-13T13:48:11.928Z,15.30
2022-10-13T13:50:39.301Z,15.40
2022-10-13T13:53:06.153Z,15.30
2022-10-13T14:56:27.457Z,14.80
2022-10-13T14:59:01.648Z,14.70
2022-10-13T15:01:36.374Z,14.70
2022-10-13T15:04:03.734Z,14.60
2022-10-13T15:06:32.082Z,14.60
2022-10-13T15:08:59.070Z,14.50
2022-10-13T15:11:26.992Z,14.50
2022-10-13T15:13:54.189Z,14.40
2022-10-13T15:16:23.197Z,14.40
2022-10-13T15:18:50.037Z,14.30
2022-10-13T15:21:17.782Z,14.30
2022-10-13T15:23:44.926Z,14.20
2022-10-13T15:26:13.885Z,14.20
2022-10-13T15:28:43.669Z,14.10
2022-10-13T15:31:11.508Z,14.10
2022-10-13T15:33:38.929Z,14.10
2022-10-13T15:36:05.901Z,14.10
2022-10-13T15:38:33.188Z,14.10
2022-10-13T15:41:01.087Z,14.20
2022-10-13T15:43:28.333Z,14.20
2022-10-13T15:45:57.291Z,14.20
2022-10-13T15:48:24.348Z,14.30
2022-10-13T15:50:51.305Z,14.20
2022-10-13T15:53:18.494Z,14.20
2022-10-13T15:55:45.387Z,14.20
2022-10-13T15:58:13.938Z,14.20
2022-10-13T16:00:41.779Z,14.20
2022-10-13T16:03:16.160Z,14.20
2022-10-13T16:05:44.729Z,14.10
2022-10-13T16:08:11.893Z,14.10
2022-10-13T16:10:42.924Z,14.10
2022-10-13T16:13:14.314Z,14.10
2022-10-13T16:15:42.428Z,14.20
2022-10-13T16:18:09.637Z,14.10
2022-10-13T16:20:38.844Z,14.10
2022-10-13T16:23:05.762Z,14.10
2022-10-13T16:25:32.625Z,14.10
2022-10-13T16:27:59.912Z,14.10
2022-10-13T16:30:27.389Z,14.00
2022-10-13T16:32:54.214Z,14.00
2022-10-13T16:35:21.022Z,13.90
2022-10-13T16:37:47.900Z,13.90
2022-10-13T16:40:14.817Z,14.00
2022-10-13T16:42:42.417Z,13.90
2022-10-13T16:45:09.550Z,13.90
2022-10-13T16:47:36.446Z,13.90
2022-10-13T16:50:09.240Z,13.90
2022-10-13T16:52:37.346Z,13.80
2022-10-13T16:55:05.654Z,13.90
2022-10-13T16:57:33.035Z,13.80
2022-10-13T17:00:00.173Z,13.80
2022-10-13T17:02:28.775Z,13.70
2022-10-13T17:04:55.609Z,13.70
2022-10-13T17:07:22.810Z,13.80
2022-10-13T17:09:50.081Z,13.80
2022-10-13T17:12:16.963Z,13.80
2022-10-13T17:14:43.765Z,13.80
2022-10-13T17:17:10.532Z,13.80
2022-10-13T17:19:37.327Z,13.70
2022-10-13T17:22:04.133Z,13.80
2022-10-13T17:24:30.987Z,13.70
2022-10-13T17:26:57.858Z,13.70
2022-10-13T17:29:24.911Z,13.70
2022-10-13T17:31:53.495Z,13.60
2022-10-13T17:34:21.894Z,13.60
2022-10-13T17:36:51.321Z,13.60
2022-10-13T17:39:18.157Z,13.60
2022-10-13T17:41:50.019Z,13.60
2022-10-13T17:44:20.630Z,13.60
2022-10-13T17:46:49.080Z,13.60
2022-10-13T17:49:16.699Z,13.60
2022-10-13T17:51:44.909Z,13.60
2022-10-13T17:54:16.125Z,13.60
2022-10-13T17:56:43.938Z,13.60
2022-10-13T17:59:15.471Z,13.60
2022-10-13T18:01:43.066Z,13.60
2022-10-13T18:04:16.152Z,13.60
2022-10-13T18:06:44.208Z,13.50
2022-10-13T18:09:14.024Z,13.60
2022-10-13T18:11:47.046Z,13.60
2022-10-13T18:14:17.939Z,13.50
2022-10-13T18:16:44.839Z,13.50
2022-10-13T18:19:12.826Z,13.50
2022-10-13T18:21:39.748Z,13.50
2022-10-13T18:24:07.028Z,13.60
2022-10-13T18:26:37.126Z,13.50
2022-10-13T18:29:06.324Z,13.50
2022-10-13T18:31:35.376Z,13.50
2022-10-13T18:34:04.751Z,13.50
2022-10-13T18:36:33.104Z,13.50
2022-10-13T18:39:13.244Z,13.40
2022-10-13T18:41:41.014Z,13.40
2022-10-13T18:44:08.962Z,13.40
2022-10-13T18:46:37.608Z,13.40
2022-10-13T18:49:05.929Z,13.40
2022-10-13T18:51:36.152Z,13.40
2022-10-13T18:54:04.559Z,13.40
2022-10-13T18:56:32.885Z,13.40
2022-10-13T18:59:01.619Z,13.40
2022-10-13T19:01:31.138Z,13.50
2022-10-13T19:03:58.601Z,13.40
2022-10-13T19:06:27.262Z,13.40
2022-10-13T19:09:04.992Z,13.30
2022-10-13T19:11:35.317Z,13.30
2022-10-13T19:14:03.228Z,13.30
2022-10-13T19:16:31.657Z,13.30
2022-10-13T19:19:01.058Z,13.30
2022-10-13T19:21:28.171Z,13.30
2022-10-13T19:23:58.859Z,13.30
2022-10-13T19:26:32.417Z,13.20
2022-10-13T19:29:05.997Z,13.20
2022-10-13T19:31:34.843Z,13.20
2022-10-13T19:34:07.438Z,13.20
2022-10-13T19:36:40.905Z,13.10
2022-10-13T19:39:21.660Z,13.10
2022-10-13T19:41:49.809Z,13.10
2022-10-13T19:44:18.251Z,13.10
2022-10-13T19:46:47.008Z,13.10
2022-10-13T19:49:16.594Z,13.10
2022-10-13T19:51:45.391Z,13.00
2022-10-13T19:54:12.570Z,13.00
2022-10-13T19:56:46.014Z,13.00
2022-10-13T19:59:12.989Z,13.00
2022-10-13T20:01:41.147Z,13.00
2022-10-13T20:04:14.186Z,13.10
2022-10-13T20:06:43.485Z,13.00
2022-10-13T20:09:10.661Z,13.00
2022-10-13T20:11:37.474Z,13.00
2022-10-13T20:14:04.417Z,12.90
2022-10-13T20:16:31.318Z,12.90
2022-10-13T20:18:59.788Z,13.00
2022-10-13T20:21:27.974Z,12.90
2022-10-13T20:23:55.180Z,12.80
2022-10-13T20:26:22.852Z,12.90
2022-10-13T20:28:51.508Z,12.90
2022-10-13T20:31:20.141Z,12.80
2022-10-13T20:33:49.382Z,12.80
2022-10-13T20:36:19.298Z,12.80
2022-10-13T20:38:48.489Z,12.80
2022-10-13T20:41:23.139Z,12.80
2022-10-13T20:43:50.980Z,12.70
2022-10-13T20:46:20.403Z,12.80
2022-10-13T20:49:09.835Z,12.80
2022-10-13T20:51:35.395Z,12.80
2022-10-13T20:54:02.182Z,12.80
2022-10-13T20:56:29.056Z,12.70
2022-10-13T20:58:56.027Z,12.60
2022-10-13T21:01:23.596Z,12.70
2022-10-13T21:03:54.010Z,12.70
2022-10-13T21:06:23.162Z,12.70
2022-10-13T21:08:50.589Z,12.70
2022-10-13T21:11:20.198Z,12.70
2022-10-13T21:13:47.473Z,12.60
2022-10-13T21:16:21.371Z,12.70
2022-10-13T21:18:49.950Z,12.70
2022-10-13T21:21:19.234Z,12.70
2022-10-13T21:23:53.384Z,12.70
2022-10-13T21:26:22.339Z,12.70
2022-10-13T21:28:50.484Z,12.60
2022-10-13T21:31:19.111Z,12.70
2022-10-13T21:33:45.972Z,12.70
2022-10-13T21:36:15.875Z,12.70
2022-10-13T21:38:44.258Z,12.70
2022-10-13T21:41:13.629Z,12.80
2022-10-13T21:43:41.049Z,12.90
2022-10-13T21:46:13.993Z,12.80
2022-10-13T21:48:44.528Z,12.80
2022-10-13T21:51:23.157Z,12.90
2022-10-13T21:53:52.496Z,12.80
2022-10-13T21:56:19.754Z,12.90
2022-10-13T21:58:47.479Z,12.90
2022-10-13T22:01:15.167Z,12.80
2022-10-13T22:03:42.955Z,12.90
2022-10-13T22:06:18.297Z,12.80
2022-10-13T22:08:52.154Z,12.80
2022-10-13T22:11:22.127Z,12.80
2022-10-13T22:13:49.117Z,12.80
2022-10-13T22:16:24.780Z,12.80
2022-10-13T22:18:56.760Z,12.80
2022-10-13T22:21:27.019Z,12.80
2022-10-13T22:23:57.880Z,12.80
2022-10-13T22:26:25.757Z,12.70
2022-10-13T22:28:52.825Z,12.70
2022-10-13T22:31:19.978Z,12.70
2022-10-13T22:33:53.557Z,12.70
2022-10-13T22:36:22.696Z,12.70
2022-10-13T22:38:50.830Z,12.80
2022-10-13T22:41:24.887Z,12.80
2022-10-13T22:43:54.058Z,12.80
2022-10-13T22:46:24.898Z,12.80
2022-10-13T22:48:51.990Z,12.80
2022-10-13T22:51:21.165Z,12.80
2022-10-13T22:53:48.689Z,12.80
2022-10-13T22:56:21.737Z,12.80
2022-10-13T22:58:52.688Z,12.90
2022-10-13T23:01:20.479Z,12.90
2022-10-13T23:03:49.083Z,12.80
2022-10-13T23:06:17.872Z,12.80
2022-10-13T23:08:45.036Z,12.80
2022-10-13T23:11:11.984Z,12.80
2022-10-13T23:13:39.319Z,12.70
2022-10-13T23:16:21.280Z,12.70
2022-10-13T23:18:48.422Z,12.80
2022-10-13T23:21:27.579Z,12.80
2022-10-13T23:23:56.921Z,12.70
2022-10-13T23:26:24.477Z,12.80
2022-10-13T23:28:54.655Z,12.80
2022-10-13T23:31:24.697Z,12.80
2022-10-13T23:33:51.561Z,12.80
2022-10-13T23:36:20.943Z,12.90
2022-10-13T23:38:50.904Z,12.80
2022-10-13T23:41:17.764Z,12.80
2022-10-13T23:43:44.714Z,12.80
2022-10-13T23:46:12.059Z,12.90
2022-10-13T23:48:40.031Z,12.90
2022-10-13T23:51:09.782Z,12.90
2022-10-13T23:53:40.180Z,13.00
2022-10-13T23:56:08.704Z,12.90
2022-10-13T23:58:37.107Z,12.90
